sensor_id;sensor_type;location;lat;lon;timestamp;P1;durP1;ratioP1;P2;durP2;ratioP2
38811;SDS011;24553;51.640;-0.752;2023-09-18T00:00:58;39.63;;;25.85;;
38811;SDS011;24553;51.640;-0.752;2023-09-18T00:03:23;43.03;;;25.60;;
38811;SDS011;24553;51.640;-0.752;2023-09-18T00:05:52;45.53;;;24.98;;
38811;SDS011;24553;51.640;-0.752;2023-09-18T00:08:18;38.15;;;22.02;;
38811;SDS011;24553;51.640;-0.752;2023-09-18T00:10:48;32.45;;;19.65;;
38811;SDS011;24553;51.640;-0.752;2023-09-18T00:13:17;39.60;;;22.55;;
38811;SDS011;24553;51.640;-0.752;2023-09-18T00:15:42;30.30;;;18.73;;
38811;SDS011;24553;51.640;-0.752;2023-09-18T00:18:09;29.88;;;18.00;;
38811;SDS011;24553;51.640;-0.752;2023-09-18T00:20:35;22.48;;;14.38;;
38811;SDS011;24553;51.640;-0.752;2023-09-18T00:23:00;18.85;;;12.70;;
38811;SDS011;24553;51.640;-0.752;2023-09-18T00:25:26;20.55;;;14.02;;
38811;SDS011;24553;51.640;-0.752;2023-09-18T00:27:51;18.55;;;11.93;;
38811;SDS011;24553;51.640;-0.752;2023-09-18T00:30:17;17.63;;;12.02;;
38811;SDS011;24553;51.640;-0.752;2023-09-18T00:32:42;32.30;;;13.07;;
38811;SDS011;24553;51.640;-0.752;2023-09-18T00:35:08;12.40;;;8.48;;
38811;SDS011;24553;51.640;-0.752;2023-09-18T00:37:33;16.70;;;10.95;;
38811;SDS011;24553;51.640;-0.752;2023-09-18T00:39:58;13.90;;;9.23;;
38811;SDS011;24553;51.640;-0.752;2023-09-18T00:42:24;17.60;;;10.85;;
38811;SDS011;24553;51.640;-0.752;2023-09-18T00:44:49;12.77;;;8.70;;
38811;SDS011;24553;51.640;-0.752;2023-09-18T00:47:15;8.95;;;5.97;;
38811;SDS011;24553;51.640;-0.752;2023-09-18T00:49:42;6.22;;;4.75;;
38811;SDS011;24553;51.640;-0.752;2023-09-18T00:52:12;4.25;;;3.85;;
38811;SDS011;24553;51.640;-0.752;2023-09-18T00:54:38;5.35;;;4.00;;
38811;SDS011;24553;51.640;-0.752;2023-09-18T00:57:04;5.63;;;4.32;;
38811;SDS011;24553;51.640;-0.752;2023-09-18T00:59:30;4.22;;;3.67;;
38811;SDS011;24553;51.640;-0.752;2023-09-18T01:01:56;3.88;;;3.42;;
38811;SDS011;24553;51.640;-0.752;2023-09-18T01:04:22;4.55;;;2.45;;
38811;SDS011;24553;51.640;-0.752;2023-09-18T01:06:47;6.40;;;2.55;;
38811;SDS011;24553;51.640;-0.752;2023-09-18T01:09:14;2.63;;;2.13;;
38811;SDS011;24553;51.640;-0.752;2023-09-18T01:16:56;0.80;;;0.80;;
38811;SDS011;24553;51.640;-0.752;2023-09-18T01:22:10;5.70;;;2.40;;
38811;SDS011;24553;51.640;-0.752;2023-09-18T01:24:37;1.73;;;1.50;;
38811;SDS011;24553;51.640;-0.752;2023-09-18T01:27:04;1.17;;;1.17;;
38811;SDS011;24553;51.640;-0.752;2023-09-18T01:29:30;1.73;;;1.08;;
38811;SDS011;24553;51.640;-0.752;2023-09-18T01:31:56;2.05;;;0.75;;
38811;SDS011;24553;51.640;-0.752;2023-09-18T01:34:25;1.30;;;1.02;;
38811;SDS011;24553;51.640;-0.752;2023-09-18T01:36:53;1.70;;;0.60;;
38811;SDS011;24553;51.640;-0.752;2023-09-18T01:39:20;0.55;;;0.30;;
38811;SDS011;24553;51.640;-0.752;2023-09-18T01:41:46;1.08;;;1.08;;
38811;SDS011;24553;51.640;-0.752;2023-09-18T01:44:12;0.90;;;0.90;;
38811;SDS011;24553;51.640;-0.752;2023-09-18T01:46:38;1.58;;;1.00;;
38811;SDS011;24553;51.640;-0.752;2023-09-18T01:49:04;2.83;;;0.73;;
38811;SDS011;24553;51.640;-0.752;2023-09-18T01:51:30;0.80;;;0.80;;
38811;SDS011;24553;51.640;-0.752;2023-09-18T01:53:55;1.77;;;0.80;;
38811;SDS011;24553;51.640;-0.752;2023-09-18T01:56:21;2.67;;;0.60;;
38811;SDS011;24553;51.640;-0.752;2023-09-18T01:58:48;0.90;;;0.75;;
38811;SDS011;24553;51.640;-0.752;2023-09-18T02:01:13;0.63;;;0.47;;
38811;SDS011;24553;51.640;-0.752;2023-09-18T02:03:39;0.98;;;0.98;;
38811;SDS011;24553;51.640;-0.752;2023-09-18T02:06:09;0.65;;;0.55;;
38811;SDS011;24553;51.640;-0.752;2023-09-18T02:08:35;2.63;;;0.93;;
38811;SDS011;24553;51.640;-0.752;2023-09-18T02:11:00;3.70;;;0.32;;
38811;SDS011;24553;51.640;-0.752;2023-09-18T02:13:26;0.85;;;0.60;;
38811;SDS011;24553;51.640;-0.752;2023-09-18T02:15:51;4.70;;;0.50;;
38811;SDS011;24553;51.640;-0.752;2023-09-18T02:18:17;1.45;;;0.68;;
38811;SDS011;24553;51.640;-0.752;2023-09-18T02:20:42;0.43;;;0.40;;
38811;SDS011;24553;51.640;-0.752;2023-09-18T02:23:09;2.38;;;0.70;;
38811;SDS011;24553;51.640;-0.752;2023-09-18T02:25:34;2.17;;;0.57;;
38811;SDS011;24553;51.640;-0.752;2023-09-18T02:28:00;0.80;;;0.55;;
38811;SDS011;24553;51.640;-0.752;2023-09-18T02:30:25;1.60;;;0.47;;
38811;SDS011;24553;51.640;-0.752;2023-09-18T02:32:50;5.10;;;0.90;;
38811;SDS011;24553;51.640;-0.752;2023-09-18T02:35:15;2.65;;;1.13;;
38811;SDS011;24553;51.640;-0.752;2023-09-18T02:37:41;1.20;;;0.68;;
38811;SDS011;24553;51.640;-0.752;2023-09-18T02:40:06;1.92;;;0.50;;
38811;SDS011;24553;51.640;-0.752;2023-09-18T02:42:32;1.40;;;0.85;;
38811;SDS011;24553;51.640;-0.752;2023-09-18T02:44:58;1.33;;;0.95;;
38811;SDS011;24553;51.640;-0.752;2023-09-18T02:47:23;1.13;;;0.90;;
38811;SDS011;24553;51.640;-0.752;2023-09-18T02:49:49;0.52;;;0.52;;
38811;SDS011;24553;51.640;-0.752;2023-09-18T02:52:14;0.60;;;0.60;;
38811;SDS011;24553;51.640;-0.752;2023-09-18T02:54:39;0.82;;;0.80;;
38811;SDS011;24553;51.640;-0.752;2023-09-18T02:57:05;1.40;;;1.17;;
38811;SDS011;24553;51.640;-0.752;2023-09-18T02:59:30;0.80;;;0.80;;
38811;SDS011;24553;51.640;-0.752;2023-09-18T03:01:56;1.77;;;1.35;;
38811;SDS011;24553;51.640;-0.752;2023-09-18T03:04:21;5.13;;;1.90;;
38811;SDS011;24553;51.640;-0.752;2023-09-18T03:06:46;0.95;;;0.90;;
38811;SDS011;24553;51.640;-0.752;2023-09-18T03:09:12;3.63;;;1.30;;
38811;SDS011;24553;51.640;-0.752;2023-09-18T03:11:37;2.00;;;1.25;;
38811;SDS011;24553;51.640;-0.752;2023-09-18T03:14:02;1.50;;;1.35;;
38811;SDS011;24553;51.640;-0.752;2023-09-18T03:16:28;1.88;;;1.50;;
38811;SDS011;24553;51.640;-0.752;2023-09-18T03:18:56;1.70;;;1.58;;
38811;SDS011;24553;51.640;-0.752;2023-09-18T03:21:21;5.05;;;2.42;;
38811;SDS011;24553;51.640;-0.752;2023-09-18T03:23:47;7.15;;;2.30;;
38811;SDS011;24553;51.640;-0.752;2023-09-18T03:26:12;2.00;;;1.80;;
38811;SDS011;24553;51.640;-0.752;2023-09-18T03:28:37;2.00;;;1.70;;
38811;SDS011;24553;51.640;-0.752;2023-09-18T03:31:03;2.42;;;1.92;;
38811;SDS011;24553;51.640;-0.752;2023-09-18T03:33:29;2.88;;;1.60;;
38811;SDS011;24553;51.640;-0.752;2023-09-18T03:35:55;1.65;;;1.42;;
38811;SDS011;24553;51.640;-0.752;2023-09-18T03:38:23;2.35;;;1.73;;
38811;SDS011;24553;51.640;-0.752;2023-09-18T03:40:49;1.02;;;1.02;;
38811;SDS011;24553;51.640;-0.752;2023-09-18T03:43:15;2.33;;;1.83;;
38811;SDS011;24553;51.640;-0.752;2023-09-18T03:45:40;1.67;;;1.35;;
38811;SDS011;24553;51.640;-0.752;2023-09-18T03:48:05;2.75;;;1.58;;
38811;SDS011;24553;51.640;-0.752;2023-09-18T03:50:31;4.13;;;1.45;;
38811;SDS011;24553;51.640;-0.752;2023-09-18T03:52:56;3.05;;;1.60;;
38811;SDS011;24553;51.640;-0.752;2023-09-18T03:55:22;1.58;;;1.23;;
38811;SDS011;24553;51.640;-0.752;2023-09-18T03:57:48;0.93;;;0.85;;
38811;SDS011;24553;51.640;-0.752;2023-09-18T04:00:13;3.90;;;1.02;;
38811;SDS011;24553;51.640;-0.752;2023-09-18T04:02:39;1.80;;;0.77;;
38811;SDS011;24553;51.640;-0.752;2023-09-18T04:05:04;1.52;;;0.73;;
38811;SDS011;24553;51.640;-0.752;2023-09-18T04:07:30;2.70;;;0.82;;
38811;SDS011;24553;51.640;-0.752;2023-09-18T04:09:56;2.28;;;1.02;;
38811;SDS011;24553;51.640;-0.752;2023-09-18T04:12:22;2.60;;;0.65;;
38811;SDS011;24553;51.640;-0.752;2023-09-18T04:14:47;0.77;;;0.55;;
38811;SDS011;24553;51.640;-0.752;2023-09-18T04:17:12;0.50;;;0.47;;
38811;SDS011;24553;51.640;-0.752;2023-09-18T04:19:38;0.90;;;0.30;;
38811;SDS011;24553;51.640;-0.752;2023-09-18T04:22:03;3.13;;;0.70;;
38811;SDS011;24553;51.640;-0.752;2023-09-18T04:24:29;1.83;;;0.40;;
38811;SDS011;24553;51.640;-0.752;2023-09-18T04:26:54;0.40;;;0.40;;
38811;SDS011;24553;51.640;-0.752;2023-09-18T04:29:20;0.77;;;0.40;;
38811;SDS011;24553;51.640;-0.752;2023-09-18T04:31:45;1.58;;;0.22;;
38811;SDS011;24553;51.640;-0.752;2023-09-18T04:34:12;0.15;;;0.15;;
38811;SDS011;24553;51.640;-0.752;2023-09-18T04:36:37;2.15;;;1.10;;
38811;SDS011;24553;51.640;-0.752;2023-09-18T04:39:03;0.47;;;0.47;;
38811;SDS011;24553;51.640;-0.752;2023-09-18T04:41:30;0.22;;;0.17;;
38811;SDS011;24553;51.640;-0.752;2023-09-18T04:43:55;1.88;;;0.50;;
38811;SDS011;24553;51.640;-0.752;2023-09-18T04:46:21;0.40;;;0.38;;
38811;SDS011;24553;51.640;-0.752;2023-09-18T04:48:46;3.90;;;0.63;;
38811;SDS011;24553;51.640;-0.752;2023-09-18T04:51:12;0.95;;;0.32;;
38811;SDS011;24553;51.640;-0.752;2023-09-18T04:53:37;1.38;;;0.35;;
38811;SDS011;24553;51.640;-0.752;2023-09-18T04:56:03;0.95;;;0.50;;
38811;SDS011;24553;51.640;-0.752;2023-09-18T04:58:29;0.55;;;0.20;;
38811;SDS011;24553;51.640;-0.752;2023-09-18T05:00:55;1.42;;;0.10;;
38811;SDS011;24553;51.640;-0.752;2023-09-18T05:03:21;0.75;;;0.38;;
38811;SDS011;24553;51.640;-0.752;2023-09-18T05:05:46;3.47;;;0.75;;
38811;SDS011;24553;51.640;-0.752;2023-09-18T05:08:12;2.90;;;0.52;;
38811;SDS011;24553;51.640;-0.752;2023-09-18T05:10:37;2.33;;;0.55;;
38811;SDS011;24553;51.640;-0.752;2023-09-18T05:13:03;2.08;;;0.55;;
38811;SDS011;24553;51.640;-0.752;2023-09-18T05:15:29;2.58;;;0.70;;
38811;SDS011;24553;51.640;-0.752;2023-09-18T05:17:55;2.50;;;0.70;;
38811;SDS011;24553;51.640;-0.752;2023-09-18T05:20:22;0.95;;;0.50;;
38811;SDS011;24553;51.640;-0.752;2023-09-18T05:22:49;0.60;;;0.60;;
38811;SDS011;24553;51.640;-0.752;2023-09-18T05:25:17;1.05;;;0.77;;
38811;SDS011;24553;51.640;-0.752;2023-09-18T05:27:43;1.30;;;1.25;;
38811;SDS011;24553;51.640;-0.752;2023-09-18T05:30:19;1.40;;;0.73;;
38811;SDS011;24553;51.640;-0.752;2023-09-18T05:32:48;0.77;;;0.73;;
38811;SDS011;24553;51.640;-0.752;2023-09-18T05:35:14;1.98;;;1.60;;
38811;SDS011;24553;51.640;-0.752;2023-09-18T05:37:39;7.82;;;1.83;;
38811;SDS011;24553;51.640;-0.752;2023-09-18T05:40:06;3.30;;;1.67;;
38811;SDS011;24553;51.640;-0.752;2023-09-18T05:42:34;6.10;;;1.63;;
38811;SDS011;24553;51.640;-0.752;2023-09-18T05:45:10;3.05;;;2.63;;
38811;SDS011;24553;51.640;-0.752;2023-09-18T05:47:36;3.33;;;2.40;;
38811;SDS011;24553;51.640;-0.752;2023-09-18T05:50:02;3.35;;;1.60;;
38811;SDS011;24553;51.640;-0.752;2023-09-18T05:52:32;2.58;;;1.85;;
38811;SDS011;24553;51.640;-0.752;2023-09-18T05:54:58;3.50;;;2.00;;
38811;SDS011;24553;51.640;-0.752;2023-09-18T05:57:24;8.60;;;2.17;;
38811;SDS011;24553;51.640;-0.752;2023-09-18T05:59:49;4.35;;;2.25;;
38811;SDS011;24553;51.640;-0.752;2023-09-18T06:02:15;4.85;;;2.97;;
38811;SDS011;24553;51.640;-0.752;2023-09-18T06:04:41;3.35;;;2.53;;
38811;SDS011;24553;51.640;-0.752;2023-09-18T06:07:07;5.25;;;2.30;;
38811;SDS011;24553;51.640;-0.752;2023-09-18T06:09:32;5.18;;;2.60;;
38811;SDS011;24553;51.640;-0.752;2023-09-18T06:11:58;2.50;;;2.15;;
38811;SDS011;24553;51.640;-0.752;2023-09-18T06:14:24;3.28;;;2.10;;
38811;SDS011;24553;51.640;-0.752;2023-09-18T06:16:50;7.28;;;2.22;;
38811;SDS011;24553;51.640;-0.752;2023-09-18T06:19:16;11.48;;;4.13;;
38811;SDS011;24553;51.640;-0.752;2023-09-18T06:21:42;5.22;;;1.83;;
38811;SDS011;24553;51.640;-0.752;2023-09-18T06:24:08;5.15;;;2.72;;
38811;SDS011;24553;51.640;-0.752;2023-09-18T06:26:34;2.85;;;1.75;;
38811;SDS011;24553;51.640;-0.752;2023-09-18T06:29:00;5.55;;;2.38;;
38811;SDS011;24553;51.640;-0.752;2023-09-18T06:31:27;3.42;;;1.77;;
38811;SDS011;24553;51.640;-0.752;2023-09-18T06:33:53;3.72;;;1.90;;
38811;SDS011;24553;51.640;-0.752;2023-09-18T06:36:18;5.75;;;2.30;;
38811;SDS011;24553;51.640;-0.752;2023-09-18T06:38:44;2.78;;;1.52;;
38811;SDS011;24553;51.640;-0.752;2023-09-18T06:41:09;3.92;;;1.25;;
38811;SDS011;24553;51.640;-0.752;2023-09-18T06:43:34;5.32;;;4.18;;
38811;SDS011;24553;51.640;-0.752;2023-09-18T06:46:00;2.97;;;1.70;;
38811;SDS011;24553;51.640;-0.752;2023-09-18T06:48:25;4.82;;;2.97;;
38811;SDS011;24553;51.640;-0.752;2023-09-18T06:50:51;1.17;;;1.08;;
38811;SDS011;24553;51.640;-0.752;2023-09-18T06:53:16;6.03;;;2.50;;
38811;SDS011;24553;51.640;-0.752;2023-09-18T06:55:41;5.85;;;2.17;;
38811;SDS011;24553;51.640;-0.752;2023-09-18T06:58:06;1.83;;;1.70;;
38811;SDS011;24553;51.640;-0.752;2023-09-18T07:00:32;3.50;;;2.28;;
38811;SDS011;24553;51.640;-0.752;2023-09-18T07:02:57;7.00;;;2.55;;
38811;SDS011;24553;51.640;-0.752;2023-09-18T07:05:22;2.55;;;1.55;;
38811;SDS011;24553;51.640;-0.752;2023-09-18T07:07:48;2.35;;;1.88;;
38811;SDS011;24553;51.640;-0.752;2023-09-18T07:10:13;1.50;;;1.40;;
38811;SDS011;24553;51.640;-0.752;2023-09-18T07:12:39;1.73;;;1.60;;
38811;SDS011;24553;51.640;-0.752;2023-09-18T07:15:04;3.20;;;1.90;;
38811;SDS011;24553;51.640;-0.752;2023-09-18T07:17:31;2.13;;;1.65;;
38811;SDS011;24553;51.640;-0.752;2023-09-18T07:19:57;7.75;;;2.47;;
38811;SDS011;24553;51.640;-0.752;2023-09-18T07:22:22;3.97;;;2.38;;
38811;SDS011;24553;51.640;-0.752;2023-09-18T07:24:48;7.30;;;2.30;;
38811;SDS011;24553;51.640;-0.752;2023-09-18T07:27:13;2.53;;;1.40;;
38811;SDS011;24553;51.640;-0.752;2023-09-18T07:29:38;2.17;;;1.20;;
38811;SDS011;24553;51.640;-0.752;2023-09-18T07:32:04;3.13;;;2.45;;
38811;SDS011;24553;51.640;-0.752;2023-09-18T07:34:29;5.35;;;1.80;;
38811;SDS011;24553;51.640;-0.752;2023-09-18T07:36:54;4.40;;;2.63;;
38811;SDS011;24553;51.640;-0.752;2023-09-18T07:39:21;3.15;;;2.35;;
38811;SDS011;24553;51.640;-0.752;2023-09-18T07:41:47;3.60;;;1.90;;
38811;SDS011;24553;51.640;-0.752;2023-09-18T07:44:19;5.18;;;2.67;;
38811;SDS011;24553;51.640;-0.752;2023-09-18T07:46:45;3.28;;;2.15;;
38811;SDS011;24553;51.640;-0.752;2023-09-18T07:49:10;1.95;;;1.85;;
38811;SDS011;24553;51.640;-0.752;2023-09-18T07:51:35;10.07;;;2.83;;
38811;SDS011;24553;51.640;-0.752;2023-09-18T07:54:01;2.67;;;1.38;;
38811;SDS011;24553;51.640;-0.752;2023-09-18T07:56:26;10.63;;;2.20;;
38811;SDS011;24553;51.640;-0.752;2023-09-18T07:58:52;2.53;;;1.67;;
38811;SDS011;24553;51.640;-0.752;2023-09-18T08:01:17;2.75;;;2.60;;
38811;SDS011;24553;51.640;-0.752;2023-09-18T08:03:43;8.07;;;3.60;;
38811;SDS011;24553;51.640;-0.752;2023-09-18T08:06:08;3.65;;;2.40;;
38811;SDS011;24553;51.640;-0.752;2023-09-18T08:08:33;3.58;;;1.58;;
38811;SDS011;24553;51.640;-0.752;2023-09-18T08:11:00;3.53;;;1.25;;
38811;SDS011;24553;51.640;-0.752;2023-09-18T08:13:34;4.57;;;1.70;;
38811;SDS011;24553;51.640;-0.752;2023-09-18T08:15:59;3.83;;;1.20;;
38811;SDS011;24553;51.640;-0.752;2023-09-18T08:18:24;2.17;;;1.88;;
38811;SDS011;24553;51.640;-0.752;2023-09-18T08:20:51;2.50;;;2.03;;
38811;SDS011;24553;51.640;-0.752;2023-09-18T08:23:17;3.60;;;0.77;;
38811;SDS011;24553;51.640;-0.752;2023-09-18T08:25:42;1.35;;;0.70;;
38811;SDS011;24553;51.640;-0.752;2023-09-18T08:28:08;0.82;;;0.82;;
38811;SDS011;24553;51.640;-0.752;2023-09-18T08:30:33;3.03;;;0.93;;
38811;SDS011;24553;51.640;-0.752;2023-09-18T08:32:59;4.45;;;1.48;;
38811;SDS011;24553;51.640;-0.752;2023-09-18T08:35:24;0.63;;;0.47;;
38811;SDS011;24553;51.640;-0.752;2023-09-18T08:37:54;1.70;;;0.65;;
38811;SDS011;24553;51.640;-0.752;2023-09-18T08:40:19;3.10;;;0.85;;
38811;SDS011;24553;51.640;-0.752;2023-09-18T08:42:46;2.13;;;0.77;;
38811;SDS011;24553;51.640;-0.752;2023-09-18T08:45:15;1.80;;;0.80;;
38811;SDS011;24553;51.640;-0.752;2023-09-18T08:47:48;2.85;;;0.80;;
38811;SDS011;24553;51.640;-0.752;2023-09-18T08:50:15;2.42;;;0.88;;
38811;SDS011;24553;51.640;-0.752;2023-09-18T08:52:41;1.00;;;0.60;;
38811;SDS011;24553;51.640;-0.752;2023-09-18T08:55:07;5.03;;;0.82;;
38811;SDS011;24553;51.640;-0.752;2023-09-18T08:57:34;3.03;;;1.52;;
38811;SDS011;24553;51.640;-0.752;2023-09-18T09:00:01;4.68;;;0.63;;
38811;SDS011;24553;51.640;-0.752;2023-09-18T09:02:32;3.88;;;1.70;;
38811;SDS011;24553;51.640;-0.752;2023-09-18T09:04:58;6.93;;;1.92;;
38811;SDS011;24553;51.640;-0.752;2023-09-18T09:07:25;3.78;;;0.80;;
38811;SDS011;24553;51.640;-0.752;2023-09-18T09:09:51;4.93;;;1.27;;
38811;SDS011;24553;51.640;-0.752;2023-09-18T09:12:18;4.78;;;1.40;;
38811;SDS011;24553;51.640;-0.752;2023-09-18T09:15:11;9.15;;;1.35;;
38811;SDS011;24553;51.640;-0.752;2023-09-18T09:17:36;10.23;;;1.35;;
38811;SDS011;24553;51.640;-0.752;2023-09-18T09:20:11;6.43;;;0.85;;
38811;SDS011;24553;51.640;-0.752;2023-09-18T09:22:38;4.13;;;0.77;;
38811;SDS011;24553;51.640;-0.752;2023-09-18T09:25:09;3.33;;;0.60;;
38811;SDS011;24553;51.640;-0.752;2023-09-18T09:30:18;2.92;;;0.40;;
38811;SDS011;24553;51.640;-0.752;2023-09-18T09:32:49;5.15;;;1.40;;
38811;SDS011;24553;51.640;-0.752;2023-09-18T09:35:22;1.52;;;0.73;;
38811;SDS011;24553;51.640;-0.752;2023-09-18T09:37:52;2.55;;;0.80;;
38811;SDS011;24553;51.640;-0.752;2023-09-18T09:40:20;2.40;;;0.70;;
38811;SDS011;24553;51.640;-0.752;2023-09-18T09:42:46;3.80;;;0.93;;
38811;SDS011;24553;51.640;-0.752;2023-09-18T09:45:13;0.73;;;0.40;;
38811;SDS011;24553;51.640;-0.752;2023-09-18T09:47:42;4.05;;;0.60;;
38811;SDS011;24553;51.640;-0.752;2023-09-18T09:50:09;11.35;;;1.25;;
38811;SDS011;24553;51.640;-0.752;2023-09-18T09:52:36;4.57;;;0.93;;
38811;SDS011;24553;51.640;-0.752;2023-09-18T10:03:02;3.70;;;1.15;;
38811;SDS011;24553;51.640;-0.752;2023-09-18T10:05:32;0.77;;;0.17;;
38811;SDS011;24553;51.640;-0.752;2023-09-18T10:08:02;0.82;;;0.75;;
38811;SDS011;24553;51.640;-0.752;2023-09-18T10:10:32;1.10;;;0.50;;
38811;SDS011;24553;51.640;-0.752;2023-09-18T10:13:05;2.83;;;0.30;;
38811;SDS011;24553;51.640;-0.752;2023-09-18T10:15:34;0.68;;;0.63;;
38811;SDS011;24553;51.640;-0.752;2023-09-18T10:18:03;1.55;;;0.68;;
38811;SDS011;24553;51.640;-0.752;2023-09-18T10:20:32;0.63;;;0.60;;
38811;SDS011;24553;51.640;-0.752;2023-09-18T10:23:08;0.45;;;0.10;;
38811;SDS011;24553;51.640;-0.752;2023-09-18T10:25:45;1.13;;;0.20;;
38811;SDS011;24553;51.640;-0.752;2023-09-18T10:28:16;0.57;;;0.30;;
38811;SDS011;24553;51.640;-0.752;2023-09-18T10:30:43;2.35;;;0.80;;
38811;SDS011;24553;51.640;-0.752;2023-09-18T10:33:09;1.05;;;0.30;;
38811;SDS011;24553;51.640;-0.752;2023-09-18T10:35:34;3.03;;;0.60;;
38811;SDS011;24553;51.640;-0.752;2023-09-18T10:38:01;0.30;;;0.20;;
38811;SDS011;24553;51.640;-0.752;2023-09-18T10:40:28;0.75;;;0.20;;
38811;SDS011;24553;51.640;-0.752;2023-09-18T10:42:55;2.72;;;1.05;;
38811;SDS011;24553;51.640;-0.752;2023-09-18T10:45:23;0.35;;;0.32;;
38811;SDS011;24553;51.640;-0.752;2023-09-18T10:47:49;0.95;;;0.22;;
38811;SDS011;24553;51.640;-0.752;2023-09-18T10:50:26;0.98;;;0.25;;
38811;SDS011;24553;51.640;-0.752;2023-09-18T10:52:52;0.75;;;0.10;;
38811;SDS011;24553;51.640;-0.752;2023-09-18T10:55:18;1.95;;;0.30;;
38811;SDS011;24553;51.640;-0.752;2023-09-18T10:57:54;3.90;;;0.38;;
38811;SDS011;24553;51.640;-0.752;2023-09-18T11:00:28;0.10;;;0.00;;
38811;SDS011;24553;51.640;-0.752;2023-09-18T11:06:02;2.08;;;0.00;;
38811;SDS011;24553;51.640;-0.752;2023-09-18T11:08:35;0.22;;;0.00;;
38811;SDS011;24553;51.640;-0.752;2023-09-18T11:11:10;1.55;;;0.00;;
38811;SDS011;24553;51.640;-0.752;2023-09-18T11:13:45;2.00;;;0.20;;
38811;SDS011;24553;51.640;-0.752;2023-09-18T11:19:16;3.35;;;1.13;;
38811;SDS011;24553;51.640;-0.752;2023-09-18T11:21:42;0.38;;;0.00;;
38811;SDS011;24553;51.640;-0.752;2023-09-18T11:24:18;0.65;;;0.15;;
38811;SDS011;24553;51.640;-0.752;2023-09-18T11:26:46;2.55;;;0.15;;
38811;SDS011;24553;51.640;-0.752;2023-09-18T11:29:14;1.08;;;0.38;;
38811;SDS011;24553;51.640;-0.752;2023-09-18T11:31:49;2.10;;;0.20;;
38811;SDS011;24553;51.640;-0.752;2023-09-18T11:34:26;0.22;;;0.17;;
38811;SDS011;24553;51.640;-0.752;2023-09-18T11:36:53;0.35;;;0.30;;
38811;SDS011;24553;51.640;-0.752;2023-09-18T11:39:38;1.65;;;0.47;;
38811;SDS011;24553;51.640;-0.752;2023-09-18T11:44:41;1.42;;;0.10;;
38811;SDS011;24553;51.640;-0.752;2023-09-18T11:47:10;0.70;;;0.10;;
38811;SDS011;24553;51.640;-0.752;2023-09-18T11:49:54;0.30;;;0.20;;
38811;SDS011;24553;51.640;-0.752;2023-09-18T11:52:23;0.47;;;0.20;;
38811;SDS011;24553;51.640;-0.752;2023-09-18T11:54:50;1.10;;;0.15;;
38811;SDS011;24553;51.640;-0.752;2023-09-18T11:57:16;2.60;;;0.70;;
38811;SDS011;24553;51.640;-0.752;2023-09-18T11:59:43;1.55;;;1.02;;
38811;SDS011;24553;51.640;-0.752;2023-09-18T12:02:11;0.52;;;0.20;;
38811;SDS011;24553;51.640;-0.752;2023-09-18T12:05:04;0.85;;;0.13;;
38811;SDS011;24553;51.640;-0.752;2023-09-18T12:07:40;2.45;;;0.63;;
38811;SDS011;24553;51.640;-0.752;2023-09-18T12:10:14;0.98;;;0.00;;
38811;SDS011;24553;51.640;-0.752;2023-09-18T12:12:42;1.05;;;0.10;;
38811;SDS011;24553;51.640;-0.752;2023-09-18T12:15:11;1.45;;;0.00;;
38811;SDS011;24553;51.640;-0.752;2023-09-18T12:17:37;0.13;;;0.00;;
38811;SDS011;24553;51.640;-0.752;2023-09-18T12:20:03;1.55;;;0.20;;
38811;SDS011;24553;51.640;-0.752;2023-09-18T12:22:30;0.40;;;0.05;;
38811;SDS011;24553;51.640;-0.752;2023-09-18T12:27:36;2.42;;;0.10;;
38811;SDS011;24553;51.640;-0.752;2023-09-18T12:30:03;0.03;;;0.00;;
38811;SDS011;24553;51.640;-0.752;2023-09-18T12:32:32;0.73;;;0.00;;
38811;SDS011;24553;51.640;-0.752;2023-09-18T12:35:00;1.63;;;0.00;;
38811;SDS011;24553;51.640;-0.752;2023-09-18T12:37:26;1.95;;;0.20;;
38811;SDS011;24553;51.640;-0.752;2023-09-18T12:39:51;0.55;;;0.00;;
38811;SDS011;24553;51.640;-0.752;2023-09-18T12:42:18;0.28;;;0.22;;
38811;SDS011;24553;51.640;-0.752;2023-09-18T12:44:45;0.10;;;0.00;;
38811;SDS011;24553;51.640;-0.752;2023-09-18T12:47:12;0.03;;;0.00;;
38811;SDS011;24553;51.640;-0.752;2023-09-18T12:49:37;3.92;;;0.03;;
38811;SDS011;24553;51.640;-0.752;2023-09-18T12:52:04;0.03;;;0.00;;
38811;SDS011;24553;51.640;-0.752;2023-09-18T12:54:42;0.10;;;0.00;;
38811;SDS011;24553;51.640;-0.752;2023-09-18T12:57:18;0.65;;;0.10;;
38811;SDS011;24553;51.640;-0.752;2023-09-18T12:59:44;0.50;;;0.25;;
38811;SDS011;24553;51.640;-0.752;2023-09-18T13:02:12;2.65;;;0.10;;
38811;SDS011;24553;51.640;-0.752;2023-09-18T13:04:38;1.17;;;0.15;;
38811;SDS011;24553;51.640;-0.752;2023-09-18T13:07:12;0.25;;;0.10;;
38811;SDS011;24553;51.640;-0.752;2023-09-18T13:09:41;0.77;;;0.47;;
38811;SDS011;24553;51.640;-0.752;2023-09-18T13:12:07;0.00;;;0.00;;
38811;SDS011;24553;51.640;-0.752;2023-09-18T13:17:43;2.03;;;0.03;;
38811;SDS011;24553;51.640;-0.752;2023-09-18T13:20:14;0.00;;;0.00;;
38811;SDS011;24553;51.640;-0.752;2023-09-18T13:22:41;2.53;;;0.17;;
38811;SDS011;24553;51.640;-0.752;2023-09-18T13:25:10;0.10;;;0.00;;
38811;SDS011;24553;51.640;-0.752;2023-09-18T13:27:36;0.00;;;0.00;;
38811;SDS011;24553;51.640;-0.752;2023-09-18T13:30:02;0.00;;;0.00;;
38811;SDS011;24553;51.640;-0.752;2023-09-18T13:32:35;0.55;;;0.00;;
38811;SDS011;24553;51.640;-0.752;2023-09-18T13:35:02;0.25;;;0.00;;
38811;SDS011;24553;51.640;-0.752;2023-09-18T13:37:30;0.28;;;0.00;;
38811;SDS011;24553;51.640;-0.752;2023-09-18T13:39:56;0.38;;;0.00;;
38811;SDS011;24553;51.640;-0.752;2023-09-18T13:42:22;0.77;;;0.08;;
38811;SDS011;24553;51.640;-0.752;2023-09-18T13:44:47;0.00;;;0.00;;
38811;SDS011;24553;51.640;-0.752;2023-09-18T13:47:14;0.30;;;0.00;;
38811;SDS011;24553;51.640;-0.752;2023-09-18T13:49:40;1.65;;;0.03;;
38811;SDS011;24553;51.640;-0.752;2023-09-18T13:52:05;1.80;;;0.20;;
38811;SDS011;24553;51.640;-0.752;2023-09-18T13:54:31;0.00;;;0.00;;
38811;SDS011;24553;51.640;-0.752;2023-09-18T13:56:56;0.40;;;0.00;;
38811;SDS011;24553;51.640;-0.752;2023-09-18T13:59:21;0.10;;;0.00;;
38811;SDS011;24553;51.640;-0.752;2023-09-18T14:01:47;2.00;;;0.20;;
38811;SDS011;24553;51.640;-0.752;2023-09-18T14:04:12;0.00;;;0.00;;
38811;SDS011;24553;51.640;-0.752;2023-09-18T14:06:38;1.00;;;0.10;;
38811;SDS011;24553;51.640;-0.752;2023-09-18T14:09:03;0.28;;;0.00;;
38811;SDS011;24553;51.640;-0.752;2023-09-18T14:11:30;0.00;;;0.00;;
38811;SDS011;24553;51.640;-0.752;2023-09-18T14:13:56;0.75;;;0.00;;
38811;SDS011;24553;51.640;-0.752;2023-09-18T14:16:21;0.40;;;0.17;;
38811;SDS011;24553;51.640;-0.752;2023-09-18T14:18:47;0.38;;;0.00;;
38811;SDS011;24553;51.640;-0.752;2023-09-18T14:21:12;0.10;;;0.10;;
38811;SDS011;24553;51.640;-0.752;2023-09-18T14:23:37;0.13;;;0.13;;
38811;SDS011;24553;51.640;-0.752;2023-09-18T14:26:03;0.22;;;0.10;;
38811;SDS011;24553;51.640;-0.752;2023-09-18T14:28:28;0.45;;;0.00;;
38811;SDS011;24553;51.640;-0.752;2023-09-18T14:30:54;0.98;;;0.10;;
38811;SDS011;24553;51.640;-0.752;2023-09-18T14:33:19;0.10;;;0.00;;
38811;SDS011;24553;51.640;-0.752;2023-09-18T14:35:44;0.30;;;0.30;;
38811;SDS011;24553;51.640;-0.752;2023-09-18T14:38:10;3.83;;;0.17;;
38811;SDS011;24553;51.640;-0.752;2023-09-18T14:40:35;3.20;;;0.20;;
38811;SDS011;24553;51.640;-0.752;2023-09-18T14:43:00;0.65;;;0.00;;
38811;SDS011;24553;51.640;-0.752;2023-09-18T14:45:26;0.00;;;0.00;;
38811;SDS011;24553;51.640;-0.752;2023-09-18T14:47:51;2.42;;;0.10;;
38811;SDS011;24553;51.640;-0.752;2023-09-18T14:50:17;0.20;;;0.10;;
38811;SDS011;24553;51.640;-0.752;2023-09-18T14:52:42;0.30;;;0.30;;
38811;SDS011;24553;51.640;-0.752;2023-09-18T14:55:08;0.95;;;0.20;;
38811;SDS011;24553;51.640;-0.752;2023-09-18T14:57:33;1.30;;;0.10;;
38811;SDS011;24553;51.640;-0.752;2023-09-18T14:59:58;0.10;;;0.10;;
38811;SDS011;24553;51.640;-0.752;2023-09-18T15:02:24;0.00;;;0.00;;
38811;SDS011;24553;51.640;-0.752;2023-09-18T15:04:54;0.60;;;0.23;;